createdAt,value
2023-03-13T00:00:18.392Z,973.89
2023-03-13T00:01:18.361Z,973.85
2023-03-13T00:02:18.422Z,973.80
2023-03-13T00:03:18.361Z,973.77
2023-03-13T00:04:18.339Z,973.78
2023-03-13T00:05:18.450Z,973.75
2023-03-13T00:06:18.294Z,973.71
2023-03-13T00:07:18.283Z,973.71
2023-03-13T00:08:18.273Z,973.69
2023-03-13T00:09:18.296Z,973.67
2023-03-13T00:10:18.285Z,973.61
2023-03-13T00:11:18.269Z,973.59
2023-03-13T00:12:18.210Z,973.57
2023-03-13T00:13:18.234Z,973.57
2023-03-13T00:14:18.238Z,973.56
2023-03-13T00:15:18.232Z,973.54
2023-03-13T00:16:18.219Z,973.54
2023-03-13T00:17:18.203Z,973.51
2023-03-13T00:18:18.140Z,973.52
2023-03-13T00:19:18.190Z,973.50
2023-03-13T00:20:18.397Z,973.45
2023-03-13T00:21:18.182Z,973.45
2023-03-13T00:22:18.103Z,973.46
2023-03-13T00:23:18.119Z,973.36
2023-03-13T00:24:18.086Z,973.30
2023-03-13T00:25:18.109Z,973.33
2023-03-13T00:26:18.097Z,973.24
2023-03-13T00:27:18.131Z,973.21
2023-03-13T00:28:18.095Z,973.20
2023-03-13T00:29:18.037Z,973.15
2023-03-13T00:30:18.020Z,973.12
2023-03-13T00:31:18.147Z,973.11
2023-03-13T00:32:18.029Z,973.09
2023-03-13T00:33:18.028Z,973.15
2023-03-13T00:34:17.973Z,973.13
2023-03-13T00:35:18.008Z,973.11
2023-03-13T00:36:17.940Z,973.01
2023-03-13T00:37:17.979Z,973.01
2023-03-13T00:38:17.929Z,972.97
2023-03-13T00:39:17.943Z,972.95
2023-03-13T00:40:17.903Z,972.89
2023-03-13T00:41:17.919Z,972.88
2023-03-13T00:42:17.880Z,972.87
2023-03-13T00:43:17.921Z,972.86
2023-03-13T00:44:17.857Z,972.88
2023-03-13T00:45:17.870Z,972.77
2023-03-13T00:46:17.940Z,972.72
2023-03-13T00:47:17.850Z,972.77
2023-03-13T00:48:17.829Z,972.62
2023-03-13T00:49:18.082Z,972.59
2023-03-13T00:50:17.801Z,972.59
2023-03-13T00:51:17.800Z,972.52
2023-03-13T00:52:17.768Z,972.48
2023-03-13T00:53:17.802Z,972.52
2023-03-13T00:54:18.480Z,972.47
2023-03-13T00:55:17.739Z,972.42
2023-03-13T00:56:17.729Z,972.40
2023-03-13T00:57:17.753Z,972.35
2023-03-13T00:58:17.685Z,972.28
2023-03-13T00:59:17.728Z,972.33
2023-03-13T01:00:17.683Z,972.37
2023-03-13T01:01:17.707Z,972.22
2023-03-13T01:02:17.738Z,972.20
2023-03-13T01:03:17.818Z,972.26
2023-03-13T01:04:17.651Z,972.20
2023-03-13T01:05:17.695Z,972.20
2023-03-13T01:06:17.612Z,972.23
2023-03-13T01:07:17.891Z,972.16
2023-03-13T01:08:17.613Z,972.15
2023-03-13T01:09:17.622Z,972.16
2023-03-13T01:10:17.590Z,972.13
2023-03-13T01:11:17.618Z,972.12
2023-03-13T01:12:17.603Z,972.10
2023-03-13T01:13:17.615Z,972.11
2023-03-13T01:14:17.526Z,972.09
2023-03-13T01:15:17.684Z,972.11
2023-03-13T01:16:17.631Z,972.12
2023-03-13T01:17:17.586Z,972.15
2023-03-13T01:18:17.565Z,972.11
2023-03-13T01:19:17.481Z,972.11
2023-03-13T01:20:17.455Z,972.11
2023-03-13T01:21:17.495Z,972.08
2023-03-13T01:22:17.424Z,972.03
2023-03-13T01:23:17.457Z,972.02
2023-03-13T01:24:17.406Z,971.99
2023-03-13T01:25:17.417Z,971.94
2023-03-13T01:26:17.396Z,971.97
2023-03-13T01:27:17.442Z,971.91
2023-03-13T01:28:17.345Z,971.88
2023-03-13T01:29:17.368Z,971.88
2023-03-13T01:30:17.333Z,971.90
2023-03-13T01:31:17.390Z,971.83
2023-03-13T01:32:17.402Z,971.68
2023-03-13T01:33:17.378Z,971.70
2023-03-13T01:34:17.314Z,971.68
2023-03-13T01:35:17.328Z,971.67
2023-03-13T01:36:17.274Z,971.68
2023-03-13T01:37:17.333Z,971.64
2023-03-13T01:38:17.278Z,971.66
2023-03-13T01:39:17.283Z,971.61
2023-03-13T01:40:17.293Z,971.60
2023-03-13T01:41:17.254Z,971.63
2023-03-13T01:42:17.203Z,971.56
2023-03-13T01:43:26.085Z,971.62
2023-03-13T01:44:18.282Z,971.58
2023-03-13T01:45:17.186Z,971.57
2023-03-13T01:46:17.176Z,971.50
2023-03-13T01:47:17.212Z,971.50
2023-03-13T01:48:17.166Z,971.46
2023-03-13T01:49:17.164Z,971.39
2023-03-13T01:50:17.134Z,971.39
2023-03-13T01:51:17.133Z,971.34
2023-03-13T01:52:17.102Z,971.36
2023-03-13T01:53:17.115Z,971.31
2023-03-13T01:54:17.084Z,971.35
2023-03-13T01:55:17.099Z,971.33
2023-03-13T01:56:17.094Z,971.32
2023-03-13T01:57:17.098Z,971.28
2023-03-13T01:58:17.033Z,971.32
2023-03-13T01:59:17.084Z,971.29
2023-03-13T02:00:17.049Z,971.27
2023-03-13T02:01:17.089Z,971.21
2023-03-13T02:02:16.983Z,971.26
2023-03-13T02:03:17.004Z,971.19
2023-03-13T02:04:16.963Z,971.22
2023-03-13T02:05:16.999Z,971.23
2023-03-13T02:06:16.980Z,971.19
2023-03-13T02:07:16.972Z,971.22
2023-03-13T02:08:16.934Z,971.25
2023-03-13T02:09:16.949Z,971.21
2023-03-13T02:10:16.904Z,971.16
2023-03-13T02:11:16.902Z,971.12
2023-03-13T02:12:16.900Z,971.13
2023-03-13T02:13:16.901Z,971.15
2023-03-13T02:14:16.844Z,971.12
2023-03-13T02:15:16.863Z,971.05
2023-03-13T02:16:17.049Z,971.09
2023-03-13T02:17:16.869Z,970.99
2023-03-13T02:18:16.803Z,971.00
2023-03-13T02:19:16.817Z,970.98
2023-03-13T02:20:16.799Z,971.02
2023-03-13T02:21:16.958Z,970.96
2023-03-13T02:22:16.802Z,970.93
2023-03-13T02:23:18.752Z,970.86
2023-03-13T02:24:16.762Z,970.84
2023-03-13T02:25:16.789Z,970.82
2023-03-13T02:26:16.809Z,970.85
2023-03-13T02:27:16.758Z,970.81
2023-03-13T02:28:16.719Z,970.78
2023-03-13T02:29:16.757Z,970.76
2023-03-13T02:30:16.679Z,970.81
2023-03-13T02:31:16.736Z,970.66
2023-03-13T02:32:16.718Z,970.65
2023-03-13T02:33:16.680Z,970.59
2023-03-13T02:34:16.659Z,970.59
2023-03-13T02:35:16.721Z,970.50
2023-03-13T02:36:16.615Z,970.45
2023-03-13T02:37:16.614Z,970.38
2023-03-13T02:38:16.668Z,970.38
2023-03-13T02:39:16.568Z,970.38
2023-03-13T02:40:16.605Z,970.35
2023-03-13T02:41:16.557Z,970.31
2023-03-13T02:42:16.577Z,970.25
2023-03-13T02:43:16.562Z,970.25
2023-03-13T02:44:16.560Z,970.18
2023-03-13T02:45:16.565Z,970.20
2023-03-13T02:46:16.551Z,970.16
2023-03-13T02:47:16.506Z,970.18
2023-03-13T02:48:16.499Z,970.11
2023-03-13T02:49:16.499Z,970.03
2023-03-13T02:50:16.524Z,970.02
2023-03-13T02:51:16.488Z,970.01
2023-03-13T02:52:16.469Z,970.02
2023-03-13T02:53:16.424Z,969.97
2023-03-13T02:54:16.459Z,969.97
2023-03-13T02:55:16.441Z,970.00
2023-03-13T02:56:16.433Z,969.95
2023-03-13T02:57:16.427Z,969.93
2023-03-13T02:58:16.385Z,969.92
2023-03-13T02:59:16.362Z,969.92
2023-03-13T03:00:16.409Z,969.89
2023-03-13T03:01:16.437Z,969.91
2023-03-13T03:02:16.346Z,969.90
2023-03-13T03:03:16.312Z,969.87
2023-03-13T03:04:16.386Z,969.86
2023-03-13T03:05:16.317Z,969.82
2023-03-13T03:06:16.341Z,969.86
2023-03-13T03:07:16.257Z,969.84
2023-03-13T03:08:16.286Z,969.82
2023-03-13T03:09:16.378Z,969.84
2023-03-13T03:10:16.304Z,969.81
2023-03-13T03:11:16.272Z,969.79
2023-03-13T03:12:16.274Z,969.80
2023-03-13T03:13:16.232Z,969.72
2023-03-13T03:14:16.254Z,969.76
2023-03-13T03:15:16.224Z,969.75
2023-03-13T03:16:16.278Z,969.81
2023-03-13T03:17:16.325Z,969.75
2023-03-13T03:18:16.705Z,969.87
2023-03-13T03:19:16.165Z,969.86
2023-03-13T03:20:16.197Z,969.86
2023-03-13T03:21:16.188Z,969.87
2023-03-13T03:22:16.190Z,969.86
2023-03-13T03:23:16.140Z,969.88
2023-03-13T03:24:16.180Z,969.86
2023-03-13T03:25:16.143Z,969.85
2023-03-13T03:26:16.140Z,969.81
2023-03-13T03:27:16.101Z,969.80
2023-03-13T03:28:16.108Z,969.74
2023-03-13T03:29:16.688Z,969.78
2023-03-13T03:30:16.085Z,969.68
2023-03-13T03:31:16.148Z,969.69
2023-03-13T03:32:16.119Z,969.63
2023-03-13T03:33:16.046Z,969.68
2023-03-13T03:34:16.045Z,969.62
2023-03-13T03:35:16.004Z,969.53
2023-03-13T03:36:16.047Z,969.54
2023-03-13T03:37:15.987Z,969.60
2023-03-13T03:38:16.009Z,969.60
2023-03-13T03:39:16.068Z,969.52
2023-03-13T03:40:15.994Z,969.56
2023-03-13T03:41:15.915Z,969.60
2023-03-13T03:42:15.956Z,969.50
2023-03-13T03:43:15.898Z,969.62
2023-03-13T03:44:15.913Z,969.56
2023-03-13T03:45:15.995Z,969.51
2023-03-13T03:46:16.109Z,969.51
2023-03-13T03:47:15.947Z,969.47
2023-03-13T03:48:15.884Z,969.45
2023-03-13T03:49:15.832Z,969.44
2023-03-13T03:50:15.963Z,969.45
2023-03-13T03:51:15.828Z,969.45
2023-03-13T03:52:15.859Z,969.48
2023-03-13T03:53:15.836Z,969.43
2023-03-13T03:54:15.814Z,969.46
2023-03-13T03:55:15.783Z,969.45
2023-03-13T03:56:15.793Z,969.45
2023-03-13T03:57:15.774Z,969.48
2023-03-13T03:58:15.847Z,969.55
2023-03-13T03:59:15.724Z,969.60
2023-03-13T04:00:15.824Z,969.56
2023-03-13T04:01:15.748Z,969.49
2023-03-13T04:02:15.755Z,969.36
2023-03-13T04:03:15.762Z,969.38
2023-03-13T04:04:15.678Z,969.35
2023-03-13T04:05:15.671Z,969.42
2023-03-13T04:06:15.690Z,969.50
2023-03-13T04:07:15.644Z,969.53
2023-03-13T04:08:15.655Z,969.50
2023-03-13T04:09:15.660Z,969.49
2023-03-13T04:10:15.617Z,969.48
2023-03-13T04:11:15.608Z,969.48
2023-03-13T04:12:15.610Z,969.48
2023-03-13T04:13:15.580Z,969.56
2023-03-13T04:14:15.599Z,969.51
2023-03-13T04:15:15.549Z,969.53
2023-03-13T04:16:15.658Z,969.45
2023-03-13T04:17:15.552Z,969.42
2023-03-13T04:18:15.648Z,969.31
2023-03-13T04:19:15.543Z,969.26
2023-03-13T04:20:15.507Z,969.27
2023-03-13T04:21:16.040Z,969.25
2023-03-13T04:22:15.497Z,969.21
2023-03-13T04:23:15.487Z,969.20
2023-03-13T04:24:15.499Z,969.24
2023-03-13T04:25:15.477Z,969.20
2023-03-13T04:26:15.511Z,969.20
2023-03-13T04:27:15.442Z,969.24
2023-03-13T04:28:15.452Z,969.06
2023-03-13T04:29:15.396Z,969.09
2023-03-13T04:30:18.305Z,968.96
2023-03-13T04:31:15.420Z,968.95
2023-03-13T04:32:15.389Z,969.00
2023-03-13T04:33:15.356Z,968.99
2023-03-13T04:34:15.359Z,969.02
2023-03-13T04:35:15.428Z,968.97
2023-03-13T04:36:15.370Z,968.98
2023-03-13T04:37:15.316Z,968.99
2023-03-13T04:38:15.333Z,968.97
2023-03-13T04:39:16.186Z,968.98
2023-03-13T04:40:15.298Z,968.88
2023-03-13T04:41:15.306Z,968.89
2023-03-13T04:42:15.283Z,968.93
2023-03-13T04:43:15.265Z,968.96
2023-03-13T04:44:15.358Z,969.04
2023-03-13T04:45:15.222Z,969.03
2023-03-13T04:46:15.307Z,968.98
2023-03-13T04:47:15.181Z,969.00
2023-03-13T04:48:15.208Z,968.94
2023-03-13T04:49:15.231Z,968.92
2023-03-13T04:50:15.207Z,968.92
2023-03-13T04:51:15.185Z,968.86
2023-03-13T04:52:15.272Z,968.80
2023-03-13T04:53:15.254Z,968.75
2023-03-13T04:54:15.126Z,968.73
2023-03-13T04:55:15.185Z,968.74
2023-03-13T04:56:15.226Z,968.71
2023-03-13T04:57:15.102Z,968.66
2023-03-13T04:58:15.155Z,968.59
2023-03-13T04:59:15.173Z,968.66
2023-03-13T05:00:15.188Z,968.70
2023-03-13T05:01:15.099Z,968.65
2023-03-13T05:02:15.209Z,968.72
2023-03-13T05:03:15.048Z,968.68
2023-03-13T05:04:15.045Z,968.74
2023-03-13T05:05:15.109Z,968.79
2023-03-13T05:06:15.035Z,968.77
2023-03-13T05:07:14.992Z,968.75
2023-03-13T05:08:14.981Z,968.76
2023-03-13T05:09:14.993Z,968.73
2023-03-13T05:10:14.959Z,968.71
2023-03-13T05:11:14.945Z,968.73
2023-03-13T05:12:14.979Z,968.71
2023-03-13T05:13:14.917Z,968.69
2023-03-13T05:14:14.915Z,968.74
2023-03-13T05:15:14.904Z,968.73
2023-03-13T05:16:14.990Z,968.67
2023-03-13T05:17:14.866Z,968.66
2023-03-13T05:18:14.958Z,968.62
2023-03-13T05:19:14.838Z,968.58
2023-03-13T05:20:15.107Z,968.53
2023-03-13T05:21:15.106Z,968.50
2023-03-13T05:22:14.946Z,968.55
2023-03-13T05:23:14.802Z,968.60
2023-03-13T05:24:14.798Z,968.53
2023-03-13T05:25:14.764Z,968.45
2023-03-13T05:26:14.834Z,968.55
2023-03-13T05:27:14.756Z,968.47
2023-03-13T05:28:14.856Z,968.47
2023-03-13T05:29:14.738Z,968.40
2023-03-13T05:30:14.718Z,968.33
2023-03-13T05:31:14.791Z,968.40
2023-03-13T05:32:14.795Z,968.34
2023-03-13T05:33:14.695Z,968.38
2023-03-13T05:34:14.693Z,968.33
2023-03-13T05:35:14.666Z,968.27
2023-03-13T05:36:14.667Z,968.32
2023-03-13T05:37:14.654Z,968.25
2023-03-13T05:38:14.797Z,968.26
2023-03-13T05:39:14.613Z,968.16
2023-03-13T05:40:14.615Z,968.20
2023-03-13T05:41:14.942Z,968.28
2023-03-13T05:42:14.624Z,968.27
2023-03-13T05:43:14.564Z,968.27
2023-03-13T05:44:14.617Z,968.21
2023-03-13T05:45:14.588Z,968.16
2023-03-13T05:46:14.626Z,968.19
2023-03-13T05:47:14.537Z,968.22
2023-03-13T05:48:14.553Z,968.19
2023-03-13T05:49:14.524Z,968.25
2023-03-13T05:50:14.555Z,968.17
2023-03-13T05:51:14.482Z,968.21
2023-03-13T05:52:14.514Z,968.14
2023-03-13T05:53:15.028Z,968.22
2023-03-13T05:54:15.637Z,968.27
2023-03-13T05:55:15.192Z,968.29
2023-03-13T05:56:14.464Z,968.29
2023-03-13T05:57:14.423Z,968.26
2023-03-13T05:58:15.060Z,968.25
2023-03-13T05:59:14.781Z,968.27
2023-03-13T06:00:14.421Z,968.30
2023-03-13T06:01:14.482Z,968.31
2023-03-13T06:02:14.420Z,968.32
2023-03-13T06:03:14.625Z,968.25
2023-03-13T06:04:14.470Z,968.24
2023-03-13T06:05:14.320Z,968.27
2023-03-13T06:06:14.346Z,968.22
2023-03-13T06:07:14.317Z,968.27
2023-03-13T06:08:14.316Z,968.26
2023-03-13T06:09:14.257Z,968.29
2023-03-13T06:10:14.596Z,968.28
2023-03-13T06:11:14.258Z,968.26
2023-03-13T06:12:14.368Z,968.31
2023-03-13T06:13:20.070Z,968.28
2023-03-13T06:14:15.382Z,968.25
2023-03-13T06:15:14.204Z,968.33
2023-03-13T06:16:14.315Z,968.36
2023-03-13T06:17:14.193Z,968.39
2023-03-13T06:18:14.213Z,968.36
2023-03-13T06:19:14.154Z,968.40
2023-03-13T06:20:14.175Z,968.31
2023-03-13T06:21:14.168Z,968.30
2023-03-13T06:22:15.604Z,968.25
2023-03-13T06:23:14.147Z,968.24
2023-03-13T06:24:14.127Z,968.19
2023-03-13T06:25:14.072Z,968.19
2023-03-13T06:26:14.098Z,968.16
2023-03-13T06:27:14.054Z,968.13
2023-03-13T06:28:14.113Z,968.07
2023-03-13T06:29:14.071Z,968.07
2023-03-13T06:30:14.050Z,968.09
2023-03-13T06:31:14.061Z,968.17
2023-03-13T06:32:14.851Z,968.15
2023-03-13T06:33:14.092Z,968.18
2023-03-13T06:34:14.042Z,968.16
2023-03-13T06:35:13.990Z,968.12
2023-03-13T06:36:14.001Z,968.18
2023-03-13T06:37:13.943Z,968.21
2023-03-13T06:38:13.989Z,968.21
2023-03-13T06:39:13.933Z,968.16
2023-03-13T06:40:13.953Z,968.21
2023-03-13T06:41:13.910Z,968.21
2023-03-13T06:42:14.145Z,968.31
2023-03-13T06:43:14.210Z,968.32
2023-03-13T06:44:13.885Z,968.33
2023-03-13T06:45:13.875Z,968.32
2023-03-13T06:46:13.878Z,968.32
2023-03-13T06:47:15.554Z,968.33
2023-03-13T06:48:13.858Z,968.31
2023-03-13T06:49:13.819Z,968.27
2023-03-13T06:50:13.851Z,968.24
2023-03-13T06:51:13.805Z,968.20
2023-03-13T06:52:13.818Z,968.18
2023-03-13T06:53:13.920Z,968.14
2023-03-13T06:54:13.810Z,968.10
2023-03-13T06:55:13.776Z,968.03
2023-03-13T06:56:13.753Z,968.03
2023-03-13T06:57:13.746Z,967.97
2023-03-13T06:58:25.214Z,967.95
2023-03-13T06:59:14.731Z,967.90
2023-03-13T07:00:13.724Z,967.96
2023-03-13T07:01:13.805Z,967.96
2023-03-13T07:02:13.694Z,967.96
2023-03-13T07:03:14.287Z,967.93
2023-03-13T07:04:13.688Z,967.97
2023-03-13T07:05:13.671Z,968.00
2023-03-13T07:06:13.647Z,968.03
2023-03-13T07:07:25.860Z,968.02
2023-03-13T07:08:14.597Z,968.01
2023-03-13T07:09:13.607Z,968.05
2023-03-13T07:10:13.568Z,968.04
2023-03-13T07:11:13.609Z,968.11
2023-03-13T07:12:13.623Z,968.10
2023-03-13T07:13:13.569Z,968.15
2023-03-13T07:14:17.353Z,968.17
2023-03-13T07:15:13.576Z,968.20
2023-03-13T07:16:13.728Z,968.23
2023-03-13T07:17:13.585Z,968.23
2023-03-13T07:18:13.540Z,968.31
2023-03-13T07:19:13.539Z,968.32
2023-03-13T07:20:15.278Z,968.41
2023-03-13T07:21:13.469Z,968.41
2023-03-13T07:22:13.494Z,968.43
2023-03-13T07:23:13.536Z,968.41
2023-03-13T07:24:13.521Z,968.41
2023-03-13T07:25:13.461Z,968.50
2023-03-13T07:26:13.443Z,968.47
2023-03-13T07:27:13.440Z,968.49
2023-03-13T07:28:13.393Z,968.44
2023-03-13T07:29:13.401Z,968.43
2023-03-13T07:30:13.412Z,968.47
2023-03-13T07:31:13.475Z,968.48
2023-03-13T07:32:13.590Z,968.48
2023-03-13T07:33:13.493Z,968.44
2023-03-13T07:34:13.338Z,968.46
2023-03-13T07:35:13.353Z,968.47
2023-03-13T07:36:13.563Z,968.51
2023-03-13T07:37:13.319Z,968.53
2023-03-13T07:38:13.290Z,968.47
2023-03-13T07:39:13.755Z,968.47
2023-03-13T07:40:13.318Z,968.51
2023-03-13T07:41:13.250Z,968.48
2023-03-13T07:42:13.276Z,968.45
2023-03-13T07:43:13.251Z,968.48
2023-03-13T07:44:13.244Z,968.41
2023-03-13T07:45:13.474Z,968.43
2023-03-13T07:46:13.264Z,968.49
2023-03-13T07:47:14.664Z,968.39
2023-03-13T07:48:13.157Z,968.43
2023-03-13T07:49:13.513Z,968.47
2023-03-13T07:50:13.164Z,968.46
2023-03-13T07:51:13.192Z,968.49
2023-03-13T07:52:13.117Z,968.38
2023-03-13T07:53:15.011Z,968.38
2023-03-13T07:54:13.205Z,968.47
2023-03-13T07:55:13.115Z,968.43
2023-03-13T07:56:13.214Z,968.39
2023-03-13T07:57:13.547Z,968.49
2023-03-13T07:58:13.052Z,968.53
2023-03-13T07:59:13.077Z,968.49
2023-03-13T08:00:13.425Z,968.55
2023-03-13T08:01:13.030Z,968.57
2023-03-13T08:02:13.030Z,968.61
2023-03-13T08:03:13.079Z,968.56
2023-03-13T08:04:13.221Z,968.61
2023-03-13T08:05:12.988Z,968.63
2023-03-13T08:06:12.956Z,968.61
2023-03-13T08:07:12.979Z,968.62
2023-03-13T08:08:12.966Z,968.61
2023-03-13T08:09:13.387Z,968.59
2023-03-13T08:10:13.410Z,968.59
2023-03-13T08:11:12.916Z,968.47
2023-03-13T08:12:12.888Z,968.51
2023-03-13T08:13:12.887Z,968.55
2023-03-13T08:14:13.075Z,968.49
2023-03-13T08:15:12.902Z,968.56
2023-03-13T08:16:12.892Z,968.50
2023-03-13T08:17:14.293Z,968.44
2023-03-13T08:18:12.821Z,968.45
2023-03-13T08:19:12.852Z,968.38
2023-03-13T08:20:12.784Z,968.34
2023-03-13T08:21:12.809Z,968.35
2023-03-13T08:22:12.776Z,968.29
2023-03-13T08:23:12.926Z,968.21
2023-03-13T08:24:12.908Z,968.24
2023-03-13T08:25:12.903Z,968.12
2023-03-13T08:26:12.725Z,968.05
2023-03-13T08:27:12.743Z,968.11
2023-03-13T08:28:12.736Z,968.10
2023-03-13T08:29:12.734Z,968.10
2023-03-13T08:30:12.679Z,968.03
2023-03-13T08:31:12.719Z,968.01
2023-03-13T08:32:12.684Z,967.96
2023-03-13T08:33:12.688Z,967.98
2023-03-13T08:34:13.308Z,967.96
2023-03-13T08:35:12.691Z,968.07
2023-03-13T08:36:12.783Z,967.97
2023-03-13T08:37:12.792Z,967.97
2023-03-13T08:38:13.207Z,967.93
2023-03-13T08:39:12.635Z,967.80
2023-03-13T08:40:12.571Z,967.82
2023-03-13T08:41:12.579Z,967.79
2023-03-13T08:42:12.546Z,967.77
2023-03-13T08:43:12.537Z,967.79
2023-03-13T08:44:12.561Z,967.86
2023-03-13T08:45:12.643Z,967.80
2023-03-13T08:46:12.558Z,967.76
2023-03-13T08:47:12.535Z,967.78
2023-03-13T08:48:12.498Z,967.74
2023-03-13T08:49:12.497Z,967.67
2023-03-13T08:50:12.584Z,967.68
2023-03-13T08:51:12.475Z,967.67
2023-03-13T08:52:12.442Z,967.65
2023-03-13T08:53:12.455Z,967.70
2023-03-13T08:54:12.439Z,967.68
2023-03-13T08:55:12.422Z,967.78
2023-03-13T08:56:12.411Z,967.75
2023-03-13T08:57:12.835Z,967.75
2023-03-13T08:58:12.409Z,967.74
2023-03-13T08:59:12.383Z,967.77
2023-03-13T09:00:12.365Z,967.75
2023-03-13T09:01:12.372Z,967.71
2023-03-13T09:02:12.336Z,967.74
2023-03-13T09:03:12.388Z,967.75
2023-03-13T09:04:12.403Z,967.70
2023-03-13T09:05:12.477Z,967.73
2023-03-13T09:06:12.480Z,967.67
2023-03-13T09:07:12.351Z,967.73
2023-03-13T09:08:12.279Z,967.75
2023-03-13T09:09:12.342Z,967.71
2023-03-13T09:10:12.252Z,967.67
2023-03-13T09:11:12.250Z,967.68
2023-03-13T09:12:24.572Z,967.70
2023-03-13T09:13:13.267Z,967.64
2023-03-13T09:14:12.210Z,967.74
2023-03-13T09:15:12.200Z,967.62
2023-03-13T09:16:12.500Z,967.68
2023-03-13T09:17:12.190Z,967.62
2023-03-13T09:18:12.201Z,967.67
2023-03-13T09:19:12.233Z,967.57
2023-03-13T09:20:12.170Z,967.58
2023-03-13T09:21:12.127Z,967.60
2023-03-13T09:22:12.111Z,967.59
2023-03-13T09:23:12.116Z,967.54
2023-03-13T09:24:12.142Z,967.63
2023-03-13T09:25:12.095Z,967.56
2023-03-13T09:26:12.563Z,967.58
2023-03-13T09:27:12.114Z,967.51
2023-03-13T09:28:12.105Z,967.52
2023-03-13T09:29:12.074Z,967.55
2023-03-13T09:30:12.028Z,967.45
2023-03-13T09:31:12.074Z,967.47
2023-03-13T09:32:12.006Z,967.43
2023-03-13T09:33:12.078Z,967.37
2023-03-13T09:34:12.025Z,967.44
2023-03-13T09:35:11.976Z,967.45
2023-03-13T09:36:12.010Z,967.51
2023-03-13T09:37:11.983Z,967.47
2023-03-13T09:38:11.970Z,967.47
2023-03-13T09:39:11.946Z,967.50
2023-03-13T09:40:11.917Z,967.60
2023-03-13T09:41:11.961Z,967.47
2023-03-13T09:42:11.938Z,967.50
2023-03-13T09:43:11.939Z,967.49
2023-03-13T09:44:12.030Z,967.52
2023-03-13T09:45:12.037Z,967.46
2023-03-13T09:46:12.007Z,967.50
2023-03-13T09:47:11.937Z,967.45
2023-03-13T09:48:11.830Z,967.47
2023-03-13T09:49:12.057Z,967.43
2023-03-13T09:50:11.960Z,967.50
2023-03-13T09:51:11.839Z,967.48
2023-03-13T09:52:11.786Z,967.49
2023-03-13T09:53:11.806Z,967.50
2023-03-13T09:54:11.847Z,967.49
2023-03-13T09:55:11.900Z,967.50
2023-03-13T09:56:11.746Z,967.57
2023-03-13T09:57:12.004Z,967.64
2023-03-13T09:58:11.931Z,967.61
2023-03-13T09:59:11.757Z,967.60
2023-03-13T10:00:11.713Z,967.61
2023-03-13T10:01:11.745Z,967.61
2023-03-13T10:02:11.653Z,967.63
2023-03-13T10:03:11.730Z,967.66
2023-03-13T10:04:12.067Z,967.70
2023-03-13T10:05:11.689Z,967.75
2023-03-13T10:06:11.771Z,967.61
2023-03-13T10:07:11.688Z,967.75
2023-03-13T10:08:11.806Z,967.69
2023-03-13T10:09:11.601Z,967.79
2023-03-13T10:10:11.619Z,967.72
2023-03-13T10:11:12.599Z,967.79
2023-03-13T10:12:11.732Z,967.74
2023-03-13T10:13:11.999Z,967.92
2023-03-13T10:14:11.562Z,967.78
2023-03-13T10:15:11.560Z,967.80
2023-03-13T10:16:11.624Z,967.67
2023-03-13T10:17:11.543Z,967.60
2023-03-13T10:18:11.598Z,967.65
2023-03-13T10:19:12.956Z,967.75
2023-03-13T10:20:12.373Z,967.66
2023-03-13T10:21:11.572Z,967.62
2023-03-13T10:22:11.436Z,967.69
2023-03-13T10:23:11.461Z,967.68
2023-03-13T10:24:11.425Z,967.66
2023-03-13T10:25:11.459Z,967.64
2023-03-13T10:26:11.410Z,967.57
2023-03-13T10:27:11.430Z,967.55
2023-03-13T10:28:11.940Z,967.52
2023-03-13T10:29:11.379Z,967.54
2023-03-13T10:30:11.360Z,967.51
2023-03-13T10:31:11.423Z,967.57
2023-03-13T10:32:11.386Z,967.59
2023-03-13T10:33:11.471Z,967.56
2023-03-13T10:34:11.391Z,967.51
2023-03-13T10:35:11.381Z,967.49
2023-03-13T10:36:12.416Z,967.49
2023-03-13T10:37:11.311Z,967.51
2023-03-13T10:38:11.288Z,967.46
2023-03-13T10:39:11.262Z,967.46
2023-03-13T10:40:11.241Z,967.44
2023-03-13T10:41:11.317Z,967.50
2023-03-13T10:42:11.307Z,967.47
2023-03-13T10:43:11.337Z,967.50
2023-03-13T10:44:11.197Z,967.43
2023-03-13T10:45:11.209Z,967.46
2023-03-13T10:46:11.189Z,967.47
2023-03-13T10:47:11.192Z,967.45
2023-03-13T10:48:11.190Z,967.40
2023-03-13T10:49:11.172Z,967.37
2023-03-13T10:50:11.378Z,967.32
2023-03-13T10:51:11.181Z,967.37
2023-03-13T10:52:11.114Z,967.37
2023-03-13T10:53:11.133Z,967.37
2023-03-13T10:54:11.113Z,967.39
2023-03-13T10:55:11.135Z,967.40
2023-03-13T10:56:11.102Z,967.33
2023-03-13T10:57:11.094Z,967.30
2023-03-13T10:58:11.283Z,967.26
2023-03-13T10:59:12.558Z,967.25
2023-03-13T11:00:11.114Z,967.21
2023-03-13T11:01:11.120Z,967.15
2023-03-13T11:02:11.103Z,967.19
2023-03-13T11:03:11.096Z,967.08
2023-03-13T11:04:11.031Z,967.10
2023-03-13T11:05:13.518Z,967.07
2023-03-13T11:06:10.980Z,967.11
2023-03-13T11:07:10.964Z,967.06
2023-03-13T11:08:11.011Z,967.05
2023-03-13T11:09:10.937Z,967.07
2023-03-13T11:10:10.958Z,967.04
2023-03-13T11:11:10.926Z,967.03
2023-03-13T11:12:11.093Z,967.02
2023-03-13T11:13:11.117Z,967.06
2023-03-13T11:14:10.906Z,967.04
2023-03-13T11:15:10.903Z,967.05
2023-03-13T11:16:10.921Z,967.00
2023-03-13T11:17:10.876Z,967.03
2023-03-13T11:18:10.871Z,967.01
2023-03-13T11:19:10.851Z,967.00
2023-03-13T11:20:11.011Z,966.99
2023-03-13T11:21:18.148Z,966.95
2023-03-13T11:22:12.025Z,966.99
2023-03-13T11:23:10.782Z,966.97
2023-03-13T11:24:10.815Z,966.89
2023-03-13T11:25:10.775Z,966.92
2023-03-13T11:26:10.780Z,966.94
2023-03-13T11:27:10.825Z,966.95
2023-03-13T11:28:10.787Z,966.97
2023-03-13T11:29:10.704Z,966.89
2023-03-13T11:30:10.849Z,966.86
2023-03-13T11:31:11.703Z,966.84
2023-03-13T11:32:10.690Z,966.78
2023-03-13T11:33:10.683Z,966.76
2023-03-13T11:34:10.695Z,966.78
2023-03-13T11:35:10.689Z,966.82
2023-03-13T11:36:10.714Z,966.75
2023-03-13T11:37:10.645Z,966.74
2023-03-13T11:38:10.628Z,966.73
2023-03-13T11:39:10.620Z,966.72
2023-03-13T11:40:10.630Z,966.71
2023-03-13T11:41:10.626Z,966.72
2023-03-13T11:42:10.782Z,966.68
2023-03-13T11:43:23.991Z,966.72
2023-03-13T11:44:11.753Z,966.69
2023-03-13T11:45:10.544Z,966.60
2023-03-13T11:46:10.636Z,966.64
2023-03-13T11:47:10.599Z,966.65
2023-03-13T11:48:10.530Z,966.65
2023-03-13T11:49:10.483Z,966.63
2023-03-13T11:50:10.601Z,966.60
2023-03-13T11:51:10.502Z,966.67
2023-03-13T11:52:10.503Z,966.57
2023-03-13T11:53:10.542Z,966.50
2023-03-13T11:54:10.462Z,966.49
2023-03-13T11:55:10.722Z,966.49
2023-03-13T11:56:10.430Z,966.46
2023-03-13T11:57:10.416Z,966.38
2023-03-13T11:58:10.443Z,966.35
2023-03-13T11:59:10.401Z,966.43
2023-03-13T12:00:10.399Z,966.34
2023-03-13T12:01:10.551Z,966.33
2023-03-13T12:02:10.439Z,966.35
2023-03-13T12:03:10.504Z,966.29
2023-03-13T12:04:10.382Z,966.25
2023-03-13T12:05:10.464Z,966.23
2023-03-13T12:06:21.863Z,966.15
2023-03-13T12:07:11.356Z,966.07
2023-03-13T12:08:10.310Z,965.99
2023-03-13T12:09:10.272Z,966.11
2023-03-13T12:10:10.305Z,966.18
2023-03-13T12:11:10.252Z,966.10
2023-03-13T12:12:10.259Z,966.13
2023-03-13T12:13:10.242Z,966.03
2023-03-13T12:14:10.264Z,965.99
2023-03-13T12:15:10.218Z,966.12
2023-03-13T12:16:10.259Z,966.05
2023-03-13T12:17:10.168Z,966.03
2023-03-13T12:18:10.186Z,965.93
2023-03-13T12:19:10.165Z,965.88
2023-03-13T12:20:10.194Z,965.87
2023-03-13T12:21:10.255Z,965.87
2023-03-13T12:22:10.214Z,965.96
2023-03-13T12:23:10.121Z,965.91
2023-03-13T12:24:10.194Z,965.91
2023-03-13T12:25:10.183Z,966.00
2023-03-13T12:26:10.132Z,965.94
2023-03-13T12:27:10.112Z,965.92
2023-03-13T12:28:10.119Z,965.86